Time;durP1;ratioP1;P1;durP2;ratioP2;P2;SDS_P1;SDS_P2;PMS_P1;PMS_P2;Temp;Humidity;BMP_temperature;BMP_pressure;BME280_temperature;BME280_humidity;BME280_pressure;Samples;Min_cycle;Max_cycle;Signal;HPM_P1;HPM_P2
2022/05/26 00:02:03;;;;;;;;;;;13.60;99.90;;;;;;5095616;28;19981;-81
2022/05/26 00:04:29;;;;;;;;;;;13.70;99.90;;;;;;5094817;28;19924;-81
2022/05/26 00:06:59;;;;;;;;;;;13.70;99.90;;;;;;5112792;28;20299;-81
2022/05/26 00:09:24;;;;;;;;;;;13.70;99.90;;;;;;5103050;28;19923;-80
2022/05/26 00:11:50;;;;;;;;;;;13.70;99.90;;;;;;5120082;28;20394;-81
2022/05/26 00:14:16;;;;;;;;;;;13.70;99.90;;;;;;5088961;28;19924;-81
2022/05/26 00:16:42;;;;;;;;;;;13.70;99.90;;;;;;5120449;28;19931;-81
2022/05/26 00:19:09;;;;;;;;;;;13.60;99.90;;;;;;5109847;28;19930;-81
2022/05/26 00:21:34;;;;;;;;;;;13.70;99.90;;;;;;5104665;28;19931;-80
2022/05/26 00:24:00;;;;;;;;;;;13.70;99.90;;;;;;5111537;28;19927;-80
2022/05/26 00:26:26;;;;;;;;;;;13.70;99.90;;;;;;5114740;28;19930;-81
2022/05/26 00:28:52;;;;;;;;;;;13.70;99.90;;;;;;5113489;28;19928;-81
2022/05/26 00:31:18;;;;;;;;;;;13.70;99.90;;;;;;5111734;28;19930;-80
2022/05/26 00:33:44;;;;;;;;;;;13.70;99.90;;;;;;5094715;28;20276;-81
2022/05/26 00:36:11;;;;;;;;;;;13.70;99.90;;;;;;5111472;28;20394;-79
2022/05/26 00:38:38;;;;;;;;;;;13.70;99.90;;;;;;5125067;28;19924;-80
2022/05/26 00:41:06;;;;;;;;;;;13.70;99.90;;;;;;5126602;28;20014;-80
2022/05/26 00:43:32;;;;;;;;;;;13.70;99.90;;;;;;5111241;28;19932;-80
2022/05/26 00:46:05;;;;;;;;;;;13.70;99.90;;;;;;5114086;28;19974;-79
2022/05/26 00:48:36;;;;;;;;;;;13.70;99.90;;;;;;5129167;28;19931;-81
2022/05/26 00:51:02;;;;;;;;;;;13.70;99.90;;;;;;5126329;28;19959;-80
2022/05/26 00:53:29;;;;;;;;;;;13.60;99.90;;;;;;5102470;28;20327;-80
2022/05/26 00:56:00;;;;;;;;;;;13.60;99.90;;;;;;5131316;28;19931;-81
2022/05/26 00:58:28;;;;;;;;;;;13.60;99.90;;;;;;5131572;28;19999;-80
2022/05/26 01:00:54;;;;;;;;;;;13.60;99.90;;;;;;5100039;28;19970;-80
2022/05/26 01:03:27;;;;;;;;;;;13.50;99.90;;;;;;5116027;27;19934;-80
2022/05/26 01:06:06;;;;;;;;;;;13.60;99.90;;;;;;5114897;27;20432;-80
2022/05/26 01:08:31;;;;;;;;;;;13.60;99.90;;;;;;5125232;27;19930;-80
2022/05/26 01:10:57;;;;;;;;;;;13.50;99.90;;;;;;5108283;28;19924;-80
2022/05/26 01:13:22;;;;;;;;;;;13.50;99.90;;;;;;5098833;27;19980;-81
2022/05/26 01:15:58;;;;;;;;;;;13.50;99.90;;;;;;5120706;27;20011;-80
2022/05/26 01:18:39;;;;;;;;;;;13.50;99.90;;;;;;5122549;27;19924;-80
2022/05/26 01:21:05;;;;;;;;;;;13.50;99.90;;;;;;5125380;27;19927;-80
2022/05/26 01:23:52;;;;;;;;;;;13.40;99.90;;;;;;5114308;28;19931;-79
2022/05/26 01:26:30;;;;;;;;;;;13.40;99.90;;;;;;5130225;27;20490;-80
2022/05/26 01:28:58;;;;;;;;;;;13.40;99.90;;;;;;5131543;27;19935;-80
2022/05/26 01:31:33;;;;;;;;;;;13.50;99.90;;;;;;5098475;27;19984;-80
2022/05/26 01:34:05;;;;;;;;;;;13.50;99.90;;;;;;5097252;28;19924;-81
2022/05/26 01:36:37;;;;;;;;;;;13.50;99.90;;;;;;5106759;28;19931;-80
2022/05/26 01:39:02;;;;;;;;;;;13.60;99.90;;;;;;5121452;27;20372;-81
2022/05/26 01:41:28;;;;;;;;;;;13.60;99.90;;;;;;5112324;28;19931;-80
2022/05/26 01:44:12;;;;;;;;;;;13.60;99.90;;;;;;5132138;27;19924;-80
2022/05/26 01:46:39;;;;;;;;;;;13.60;99.90;;;;;;5124249;27;19924;-80
2022/05/26 01:49:09;;;;;;;;;;;13.60;99.90;;;;;;5106051;27;20030;-79
2022/05/26 01:51:35;;;;;;;;;;;13.50;99.90;;;;;;5134492;27;19928;-80
2022/05/26 01:54:00;;;;;;;;;;;13.50;99.90;;;;;;5131643;27;19931;-80
2022/05/26 01:56:45;;;;;;;;;;;13.50;99.90;;;;;;5116852;27;19930;-80
2022/05/26 01:59:23;;;;;;;;;;;13.40;99.90;;;;;;5113340;28;20333;-80
2022/05/26 02:01:57;;;;;;;;;;;13.40;99.90;;;;;;5113843;28;20360;-80
2022/05/26 02:04:28;;;;;;;;;;;13.30;99.90;;;;;;5114374;27;20365;-80
2022/05/26 02:07:01;;;;;;;;;;;13.30;99.90;;;;;;5126903;27;20390;-80
2022/05/26 02:09:28;;;;;;;;;;;13.40;99.90;;;;;;5119653;27;19923;-79
2022/05/26 02:12:01;;;;;;;;;;;13.30;99.90;;;;;;5096731;28;20036;-82
2022/05/26 02:14:30;;;;;;;;;;;13.40;99.90;;;;;;5119056;27;19931;-80
2022/05/26 02:17:00;;;;;;;;;;;13.30;99.90;;;;;;5132712;27;20382;-79
2022/05/26 02:19:28;;;;;;;;;;;13.30;99.90;;;;;;5132903;27;19923;-80
2022/05/26 02:22:13;;;;;;;;;;;13.20;99.90;;;;;;5103302;28;19931;-81
2022/05/26 02:24:58;;;;;;;;;;;13.20;99.90;;;;;;5125359;27;20275;-80
2022/05/26 02:27:26;;;;;;;;;;;13.10;99.90;;;;;;5099315;27;20061;-80
2022/05/26 02:29:52;;;;;;;;;;;13.10;99.90;;;;;;5115928;27;20387;-80
2022/05/26 02:32:19;;;;;;;;;;;13.10;99.90;;;;;;5113010;27;19923;-81
2022/05/26 02:34:47;;;;;;;;;;;13.00;99.90;;;;;;5114055;27;20407;-81
2022/05/26 02:37:13;;;;;;;;;;;13.00;99.90;;;;;;5119625;27;19927;-81
2022/05/26 02:39:39;;;;;;;;;;;13.10;99.90;;;;;;5152407;27;19923;-80
2022/05/26 02:42:05;;;;;;;;;;;13.10;99.90;;;;;;5125468;27;19973;-80
2022/05/26 02:44:31;;;;;;;;;;;13.10;99.90;;;;;;5099822;28;20003;-81
2022/05/26 02:47:15;;;;;;;;;;;13.00;99.90;;;;;;5114000;27;19996;-79
2022/05/26 02:49:47;;;;;;;;;;;13.10;99.90;;;;;;5150101;27;19923;-79
2022/05/26 02:52:25;;;;;;;;;;;13.00;99.90;;;;;;5119152;27;19934;-81
2022/05/26 02:55:11;;;;;;;;;;;13.00;99.90;;;;;;5117032;27;20395;-80
2022/05/26 02:57:55;;;;;;;;;;;13.00;99.90;;;;;;5087403;28;19992;-79
2022/05/26 03:00:28;;;;;;;;;;;13.00;99.90;;;;;;5149178;27;19923;-81
2022/05/26 03:03:18;;;;;;;;;;;13.00;99.90;;;;;;5133020;27;19923;-81
2022/05/26 03:05:54;;;;;;;;;;;12.90;99.90;;;;;;5115835;27;19924;-79
2022/05/26 03:08:20;;;;;;;;;;;13.00;99.90;;;;;;5131585;27;19931;-81
2022/05/26 03:10:48;;;;;;;;;;;13.00;99.90;;;;;;5131604;27;19987;-80
2022/05/26 03:13:13;;;;;;;;;;;13.00;99.90;;;;;;5131086;27;19930;-81
2022/05/26 03:15:40;;;;;;;;;;;13.00;99.90;;;;;;5114254;27;19923;-81
2022/05/26 03:18:06;;;;;;;;;;;13.10;99.90;;;;;;5110067;28;19924;-80
2022/05/26 03:20:32;;;;;;;;;;;13.00;99.90;;;;;;5109850;27;20014;-81
2022/05/26 03:22:57;;;;;;;;;;;13.10;99.90;;;;;;5096293;28;19931;-80
2022/05/26 03:25:23;;;;;;;;;;;13.00;99.90;;;;;;5113037;27;19930;-81
2022/05/26 03:27:49;;;;;;;;;;;13.00;99.90;;;;;;5113851;28;19924;-81
2022/05/26 03:30:14;;;;;;;;;;;13.00;99.90;;;;;;5112482;28;19935;-81
2022/05/26 03:32:41;;;;;;;;;;;13.00;99.90;;;;;;5130558;27;20002;-80
2022/05/26 03:43:39;;;;;;;;;;;12.80;99.90;;;;;;5089671;27;19937;-80
2022/05/26 03:46:05;;;;;;;;;;;12.70;99.90;;;;;;5125606;28;19928;-80
2022/05/26 03:48:31;;;;;;;;;;;12.70;99.90;;;;;;5115941;28;19931;-81
2022/05/26 03:50:56;;;;;;;;;;;12.70;99.90;;;;;;5095119;28;19924;-80
2022/05/26 03:53:22;;;;;;;;;;;12.70;99.90;;;;;;5101110;27;20636;-81
2022/05/26 03:55:47;;;;;;;;;;;12.70;99.90;;;;;;5113316;28;19930;-80
2022/05/26 03:58:13;;;;;;;;;;;12.70;99.90;;;;;;5111751;28;20006;-79
2022/05/26 04:00:39;;;;;;;;;;;12.70;99.90;;;;;;5129080;28;19919;-80
2022/05/26 04:03:04;;;;;;;;;;;12.70;99.90;;;;;;5132094;27;19934;-80
2022/05/26 04:05:30;;;;;;;;;;;12.60;99.90;;;;;;5100388;28;20601;-79
2022/05/26 04:07:56;;;;;;;;;;;12.70;99.90;;;;;;5143558;27;19923;-79
2022/05/26 04:10:21;;;;;;;;;;;12.70;99.90;;;;;;5132233;27;19923;-80
2022/05/26 04:12:47;;;;;;;;;;;12.70;99.90;;;;;;5103840;28;20309;-80
2022/05/26 04:15:13;;;;;;;;;;;12.70;99.90;;;;;;5108745;28;19924;-79
2022/05/26 04:17:39;;;;;;;;;;;12.60;99.90;;;;;;5110310;28;19923;-80
2022/05/26 04:20:07;;;;;;;;;;;12.60;99.90;;;;;;5132397;28;20068;-80
2022/05/26 04:22:32;;;;;;;;;;;12.70;99.90;;;;;;5131759;28;20071;-80
2022/05/26 04:24:58;;;;;;;;;;;12.60;99.90;;;;;;5097645;28;20014;-80
2022/05/26 04:27:26;;;;;;;;;;;12.70;99.90;;;;;;5111598;27;19923;-81
2022/05/26 04:29:52;;;;;;;;;;;12.70;99.90;;;;;;5106920;28;19967;-80
2022/05/26 04:32:18;;;;;;;;;;;12.70;99.90;;;;;;5105510;28;19927;-80
2022/05/26 04:34:45;;;;;;;;;;;12.80;99.90;;;;;;5115190;28;19976;-80
2022/05/26 04:37:11;;;;;;;;;;;12.80;99.90;;;;;;5114014;27;19930;-80
2022/05/26 04:39:36;;;;;;;;;;;12.90;99.90;;;;;;5134421;27;19923;-80
2022/05/26 04:42:03;;;;;;;;;;;12.90;99.90;;;;;;5100290;27;19976;-80
2022/05/26 04:44:31;;;;;;;;;;;13.00;99.90;;;;;;5134412;27;20324;-80
2022/05/26 04:46:56;;;;;;;;;;;13.00;99.90;;;;;;5109612;28;19931;-80
2022/05/26 04:49:22;;;;;;;;;;;13.10;99.90;;;;;;5111927;27;19931;-81
2022/05/26 04:51:47;;;;;;;;;;;13.10;99.90;;;;;;5126242;27;19923;-80
2022/05/26 04:54:13;;;;;;;;;;;13.10;99.90;;;;;;5115067;28;19924;-80
2022/05/26 04:56:38;;;;;;;;;;;13.20;99.90;;;;;;5127917;27;19923;-80
2022/05/26 04:59:05;;;;;;;;;;;13.30;99.90;;;;;;5133360;27;19931;-80
2022/05/26 05:01:30;;;;;;;;;;;13.30;99.90;;;;;;5114167;28;20291;-80
2022/05/26 05:03:56;;;;;;;;;;;13.30;99.90;;;;;;5114515;27;19923;-79
2022/05/26 05:06:22;;;;;;;;;;;13.40;99.90;;;;;;5120529;27;19927;-79
2022/05/26 05:08:47;;;;;;;;;;;13.40;99.90;;;;;;5105793;28;20314;-79
2022/05/26 05:11:13;;;;;;;;;;;13.50;99.90;;;;;;5115066;28;20382;-80
2022/05/26 05:13:39;;;;;;;;;;;13.50;99.90;;;;;;5115875;27;19923;-79
2022/05/26 05:16:06;;;;;;;;;;;13.60;99.90;;;;;;5094780;27;19928;-79
2022/05/26 05:18:32;;;;;;;;;;;13.60;99.90;;;;;;5128245;27;19923;-80
2022/05/26 05:21:02;;;;;;;;;;;13.60;99.90;;;;;;5126990;27;20390;-79
2022/05/26 05:23:28;;;;;;;;;;;13.70;99.90;;;;;;5114429;27;19923;-80
2022/05/26 05:25:54;;;;;;;;;;;13.70;99.90;;;;;;5120377;27;19924;-79
2022/05/26 05:28:31;;;;;;;;;;;13.80;99.90;;;;;;5130170;27;20349;-80
2022/05/26 05:31:03;;;;;;;;;;;13.80;99.90;;;;;;5116673;27;19923;-80
2022/05/26 05:33:39;;;;;;;;;;;13.80;99.90;;;;;;5105500;28;19923;-80
2022/05/26 05:36:06;;;;;;;;;;;13.90;99.90;;;;;;5122842;27;19935;-79
2022/05/26 05:38:33;;;;;;;;;;;13.90;99.90;;;;;;5136373;27;19923;-80
2022/05/26 05:41:00;;;;;;;;;;;14.00;99.90;;;;;;5126206;27;19924;-80
2022/05/26 05:43:26;;;;;;;;;;;14.00;99.90;;;;;;5101732;27;19972;-79
2022/05/26 05:45:51;;;;;;;;;;;14.10;99.90;;;;;;5122245;27;19927;-79
2022/05/26 05:48:17;;;;;;;;;;;14.00;99.90;;;;;;5105817;27;19923;-78
2022/05/26 05:50:42;;;;;;;;;;;14.10;99.90;;;;;;5113607;27;19932;-82
2022/05/26 05:53:09;;;;;;;;;;;14.10;99.90;;;;;;5095370;27;19924;-80
2022/05/26 05:55:34;;;;;;;;;;;14.10;99.90;;;;;;5136355;27;19949;-80
2022/05/26 05:58:00;;;;;;;;;;;14.20;99.90;;;;;;5137836;27;19923;-80
2022/05/26 06:00:26;;;;;;;;;;;14.20;99.90;;;;;;5116440;27;19923;-84
2022/05/26 06:02:54;;;;;;;;;;;14.30;99.90;;;;;;5146365;27;19930;-81
2022/05/26 06:05:20;;;;;;;;;;;14.30;99.90;;;;;;5136747;27;19927;-81
2022/05/26 06:07:45;;;;;;;;;;;14.40;99.90;;;;;;5107059;27;19924;-76
2022/05/26 06:10:12;;;;;;;;;;;14.30;99.90;;;;;;5131839;27;19923;-76
2022/05/26 06:12:37;;;;;;;;;;;14.40;99.90;;;;;;5136230;27;19982;-76
2022/05/26 06:15:04;;;;;;;;;;;14.50;99.90;;;;;;5119619;27;19923;-76
2022/05/26 06:17:29;;;;;;;;;;;14.40;99.90;;;;;;5119743;27;19927;-78
2022/05/26 06:19:55;;;;;;;;;;;14.40;99.90;;;;;;5102624;27;20010;-76
2022/05/26 06:22:21;;;;;;;;;;;14.50;99.90;;;;;;5137177;27;19923;-77
2022/05/26 06:24:47;;;;;;;;;;;14.50;99.90;;;;;;5119797;27;19930;-76
2022/05/26 06:29:59;;;;;;;;;;;14.60;99.90;;;;;;5135206;27;20529;-79
2022/05/26 06:37:54;;;;;;;;;;;14.70;99.90;;;;;;5136356;27;19923;-82
2022/05/26 06:40:20;;;;;;;;;;;14.70;99.90;;;;;;5136258;27;20285;-80
2022/05/26 06:42:46;;;;;;;;;;;14.70;99.90;;;;;;5135949;27;20014;-79
2022/05/26 06:45:14;;;;;;;;;;;14.70;99.90;;;;;;5136344;27;19930;-79
2022/05/26 06:47:39;;;;;;;;;;;14.80;99.90;;;;;;5119349;27;19923;-81
2022/05/26 06:50:05;;;;;;;;;;;14.80;99.90;;;;;;5136671;27;19927;-80
2022/05/26 06:52:31;;;;;;;;;;;14.90;99.90;;;;;;5136268;27;19976;-80
2022/05/26 06:54:58;;;;;;;;;;;14.90;99.90;;;;;;5117106;27;19931;-79
2022/05/26 06:57:24;;;;;;;;;;;15.00;99.90;;;;;;5115522;27;19929;-80
2022/05/26 06:59:50;;;;;;;;;;;15.10;99.90;;;;;;5114548;27;20018;-81
2022/05/26 07:02:15;;;;;;;;;;;15.10;99.90;;;;;;5098817;27;19923;-79
2022/05/26 07:04:42;;;;;;;;;;;15.10;99.90;;;;;;5114299;27;19924;-80
2022/05/26 07:07:08;;;;;;;;;;;15.20;99.90;;;;;;5113380;27;20366;-77
2022/05/26 07:09:34;;;;;;;;;;;15.20;99.90;;;;;;5135924;27;19923;-77
2022/05/26 07:11:59;;;;;;;;;;;15.20;99.90;;;;;;5118249;27;20383;-77
2022/05/26 07:14:25;;;;;;;;;;;15.10;99.90;;;;;;5135391;27;19927;-78
2022/05/26 07:16:51;;;;;;;;;;;15.10;99.90;;;;;;5135147;27;19922;-78
2022/05/26 07:19:17;;;;;;;;;;;15.00;99.90;;;;;;5116416;27;19923;-76
2022/05/26 07:21:45;;;;;;;;;;;15.00;99.90;;;;;;5135462;27;20347;-77
2022/05/26 07:24:10;;;;;;;;;;;15.00;99.90;;;;;;5117336;27;19929;-80
2022/05/26 07:26:36;;;;;;;;;;;15.10;99.90;;;;;;5134690;27;20298;-81
2022/05/26 07:29:03;;;;;;;;;;;15.00;99.90;;;;;;5138961;27;20164;-82
2022/05/26 07:31:28;;;;;;;;;;;15.10;99.90;;;;;;5135580;27;19979;-78
2022/05/26 07:33:54;;;;;;;;;;;15.20;99.90;;;;;;5153136;27;20641;-77
2022/05/26 07:41:50;;;;;;;;;;;15.20;99.90;;;;;;5132899;27;20450;-76
2022/05/26 07:44:16;;;;;;;;;;;15.20;99.90;;;;;;5135812;27;19923;-77
2022/05/26 07:46:42;;;;;;;;;;;15.20;99.90;;;;;;5118181;27;19923;-77
2022/05/26 07:49:08;;;;;;;;;;;15.20;99.90;;;;;;5135342;27;19929;-77
2022/05/26 07:51:33;;;;;;;;;;;15.30;99.90;;;;;;5135500;27;20011;-76
2022/05/26 07:54:02;;;;;;;;;;;15.30;99.90;;;;;;5153538;27;19929;-76
2022/05/26 07:56:30;;;;;;;;;;;15.30;99.90;;;;;;5118585;27;19970;-77
2022/05/26 07:58:55;;;;;;;;;;;15.40;99.90;;;;;;5135188;27;19927;-77
2022/05/26 08:01:21;;;;;;;;;;;15.40;99.90;;;;;;5153246;27;19919;-77
2022/05/26 08:03:47;;;;;;;;;;;15.50;99.90;;;;;;5115357;27;19923;-76
2022/05/26 08:06:13;;;;;;;;;;;15.50;99.90;;;;;;5105762;28;20394;-75
2022/05/26 08:08:38;;;;;;;;;;;15.60;99.90;;;;;;5114676;28;19924;-78
2022/05/26 08:11:04;;;;;;;;;;;15.70;99.90;;;;;;5116596;27;20360;-78
2022/05/26 08:13:29;;;;;;;;;;;15.70;99.90;;;;;;5135804;27;19934;-80
2022/05/26 08:15:55;;;;;;;;;;;15.70;99.90;;;;;;5119609;27;19928;-85
2022/05/26 08:18:21;;;;;;;;;;;15.70;99.90;;;;;;5101922;27;20027;-83
2022/05/26 08:20:46;;;;;;;;;;;15.70;99.90;;;;;;5123495;27;19930;-84
2022/05/26 08:23:12;;;;;;;;;;;15.80;99.90;;;;;;5138880;27;19927;-84
2022/05/26 08:25:38;;;;;;;;;;;15.80;99.90;;;;;;5105243;27;19927;-82
2022/05/26 08:28:04;;;;;;;;;;;15.80;99.90;;;;;;5118108;27;20014;-80
2022/05/26 08:30:29;;;;;;;;;;;15.80;99.90;;;;;;5136931;27;19978;-79
2022/05/26 08:32:55;;;;;;;;;;;15.80;99.90;;;;;;5118226;27;19927;-82
2022/05/26 08:35:21;;;;;;;;;;;15.90;99.90;;;;;;5124495;27;19922;-78
2022/05/26 08:37:47;;;;;;;;;;;15.90;99.90;;;;;;5137284;27;19978;-80
2022/05/26 08:40:29;;;;;;;;;;;15.90;99.90;;;;;;5156444;27;19982;-80
2022/05/26 08:42:55;;;;;;;;;;;15.90;99.90;;;;;;5138594;27;20025;-79
2022/05/26 08:45:21;;;;;;;;;;;15.90;99.90;;;;;;5121414;27;20010;-79
2022/05/26 08:47:48;;;;;;;;;;;15.90;99.90;;;;;;5139037;27;20351;-79
